Data for 02/21/2008

Time Sea-Level Adjusted Pressure Absolute Pressure Temperature Relative Humidity Dew Point   
(mb) (inHg) (mb) (inHg) (C) (F) (%) (C) (F)
00:05 1013 29.91 842 24.86 -1.2 29.8 48 -10.9 12.3
00:10 1013 29.91 842 24.86 -1.4 29.5 49 -10.9 12.4
00:15 1013 29.91 842 24.86 -1.6 29.1 49 -10.9 12.4
00:20 1013 29.91 842 24.86 -1.6 29.2 49 -10.8 12.5
00:25 1013 29.91 842 24.86 -1.4 29.5 49 -10.9 12.5
00:30 1013 29.91 842 24.86 -1.3 29.6 48 -10.9 12.4
00:35 1013 29.91 842 24.86 -1.7 29 50 -10.7 12.7
00:40 1013 29.91 842 24.86 -2 28.4 50 -11 12.3
00:45 1013 29.91 842 24.86 -1.9 28.5 50 -11.1 11.9
00:50 1013 29.91 842 24.86 -1.8 28.8 48 -11.3 11.7
00:55 1013 29.91 842 24.86 -1.5 29.3 47 -11.4 11.5
01:00 1013 29.91 842 24.86 -1.3 29.7 47 -11.3 11.7
01:05 1013 29.91 842 24.86 -1.3 29.6 47 -11.3 11.6
01:10 1013 29.91 842 24.86 -1.5 29.2 48 -11.2 11.8
01:15 1013 29.91 842 24.86 -1.5 29.2 48 -11.3 11.7
01:20 1013 29.91 842 24.86 -1.4 29.4 47 -11.3 11.7
01:25 1013 29.91 842 24.86 -1.3 29.6 48 -11 12.2
01:30 1013 29.91 842 24.86 -1.4 29.5 48 -11.1 12
01:35 1013 29.91 842 24.86 -1.5 29.2 49 -10.9 12.5
01:40 1013 29.91 842 24.86 -1.9 28.5 50 -10.9 12.4
01:45 1013 29.91 842 24.86 -1.8 28.7 50 -10.8 12.5
01:50 1013 29.91 842 24.86 -2.1 28.3 51 -10.9 12.5
01:55 1013 29.91 842 24.86 -2 28.4 50 -11.2 11.9
02:00 1013 29.91 842 24.86 -1.9 28.5 50 -11 12.2
02:05 1013 29.91 842 24.86 -2 28.4 51 -10.8 12.5
02:10 1013 29.91 842 24.86 -2.2 28 52 -10.8 12.6
02:15 1013 29.91 842 24.86 -2.4 27.8 52 -10.9 12.4
02:20 1013 29.91 842 24.86 -2.3 27.9 52 -11 12.3
02:25 1013 29.91 842 24.86 -2.2 28 51 -11 12.3
02:30 1013 29.91 842 24.86 -2.2 28 51 -10.9 12.3
02:35 1013 29.91 842 24.86 -2.3 27.9 52 -10.9 12.4
02:40 1013 29.91 842 24.86 -2.5 27.6 52 -11 12.1
02:45 1013 29.91 842 24.86 -2.5 27.5 51 -11.3 11.7
02:50 1013 29.91 842 24.86 -2.1 28.2 50 -11.1 12
02:55 1013 29.91 842 24.86 -1.9 28.5 50 -11.1 12.1
03:00 1013 29.91 842 24.86 -1.9 28.5 50 -11.1 12
03:05 1013 29.91 842 24.86 -2.1 28.2 51 -11 12.3
03:10 1013 29.91 842 24.86 -2.4 27.6 52 -11.1 12.1
03:15 1013 29.91 842 24.86 -2.7 27.2 54 -10.8 12.6
03:20 1013 29.91 842 24.86 -3.1 26.5 54 -11 12.1
03:25 1013 29.91 842 24.86 -3.3 26.1 54 -11.2 11.8
03:30 1013 29.91 842 24.86 -3 26.6 53 -11.2 11.8
03:35 1013 29.91 842 24.86 -3.1 26.4 55 -11 12.2
03:40 1013 29.91 842 24.86 -3 26.5 54 -11.1 12.1
03:45 1013 29.91 842 24.86 -3.2 26.3 55 -10.9 12.3
03:50 1013 29.91 842 24.86 -3.2 26.2 54 -11.2 11.8
03:55 1013 29.91 842 24.86 -2.8 27 53 -11.1 12.1
04:00 1013 29.91 842 24.86 -2.9 26.8 54 -11 12.2
04:05 1013 29.91 842 24.86 -2.9 26.7 54 -10.9 12.3
04:10 1013 29.91 842 24.86 -3.3 26.1 56 -10.9 12.5
04:15 1012 29.88 842 24.86 -3.7 25.3 58 -10.9 12.3
04:20 1012 29.88 842 24.86 -3.9 25.1 58 -11 12.2
04:25 1012 29.88 842 24.86 -3.9 24.9 59 -10.9 12.5
04:30 1012 29.88 842 24.86 -4 24.9 59 -10.9 12.4
04:35 1012 29.88 842 24.86 -4 24.8 59 -11 12.3
04:40 1012 29.88 842 24.86 -4 24.9 57 -11.3 11.7
04:45 1012 29.88 842 24.86 -4 24.7 57 -11.3 11.7
04:50 1012 29.88 842 24.86 -4.3 24.3 59 -11.2 11.9
04:55 1012 29.88 842 24.86 -4.3 24.3 59 -11.1 11.9
05:00 1012 29.88 842 24.86 -4.1 24.7 58 -11.2 11.8
05:05 1012 29.88 842 24.86 -4.2 24.5 58 -11.2 11.8
05:10 1012 29.88 842 24.86 -3.9 24.9 58 -11.1 12
05:15 1013 29.91 842 24.86 -4.1 24.7 59 -11 12.1
05:20 1013 29.91 842 24.86 -4 24.8 58 -11.2 11.9
05:25 1012 29.88 842 24.86 -3.8 25.2 57 -11.1 12.1
05:30 1012 29.88 842 24.86 -3.8 25.2 56 -11.3 11.7
05:35 1012 29.88 842 24.86 -3.9 25 58 -11 12.2
05:40 1012 29.88 842 24.86 -3.9 25 59 -10.8 12.6
05:45 1012 29.88 842 24.86 -4.1 24.7 59 -10.9 12.3
05:50 1012 29.88 842 24.86 -4.1 24.6 59 -11 12.3
05:55 1013 29.91 842 24.86 -3.9 25 58 -11 12.1
06:00 1013 29.91 842 24.86 -3.5 25.7 57 -10.9 12.5
06:05 1013 29.91 842 24.86 -3.4 25.9 57 -10.7 12.7
06:10 1013 29.91 842 24.86 -3.4 25.9 57 -10.8 12.6
06:15 1013 29.91 842 24.86 -3.5 25.7 57 -10.7 12.7
06:20 1013 29.91 842 24.86 -3.4 26 56 -10.9 12.3
06:25 1012 29.88 842 24.86 -2.9 26.8 55 -10.8 12.6
06:30 1012 29.88 842 24.86 -2.9 26.8 56 -10.6 13
06:35 1013 29.91 842 24.86 -3.3 26 57 -10.6 12.9
06:40 1013 29.91 842 24.86 -3.7 25.4 58 -10.7 12.8
06:45 1013 29.91 842 24.86 -3.9 25.1 59 -10.7 12.8
06:50 1013 29.91 842 24.86 -4 24.8 60 -10.6 12.9
06:55 1013 29.91 842 24.86 -4.1 24.7 60 -10.7 12.8
07:00 1013 29.91 842 24.86 -4.2 24.4 61 -10.7 12.8
07:05 1013 29.91 842 24.86 -4.2 24.4 60 -10.8 12.6
07:10 1013 29.91 842 24.86 -4.3 24.3 61 -10.7 12.8
07:15 1013 29.91 842 24.86 -4.3 24.3 61 -10.7 12.7
07:20 1013 29.91 842 24.86 -4.2 24.4 61 -10.7 12.8
07:25 1013 29.91 842 24.86 -4.2 24.4 60 -10.8 12.5
07:30 1013 29.91 842 24.86 -4.2 24.4 60 -10.9 12.3
07:35 1013 29.91 842 24.86 -4.3 24.3 61 -10.6 12.9
07:40 1013 29.91 842 24.86 -4.2 24.4 61 -10.8 12.6
07:45 1013 29.91 842 24.86 -4.1 24.5 60 -10.8 12.5
07:50 1013 29.91 842 24.86 -3.9 25 59 -10.8 12.5
07:55 1013 29.91 842 24.86 -3.8 25.2 59 -10.6 12.9
08:00 1013 29.91 842 24.86 -3.9 25 60 -10.6 12.9
08:05 1013 29.91 842 24.86 -3.9 25.1 59 -10.8 12.6
08:10 1013 29.91 842 24.86 -3.7 25.3 58 -10.7 12.7
08:15 1013 29.91 842 24.86 -3.3 26 56 -10.8 12.6
08:20 1013 29.91 842 24.86 -2.8 27 55 -10.6 12.8
08:25 1013 29.91 842 24.86 -2.7 27.2 54 -10.6 12.9
08:30 1013 29.91 842 24.86 -3.1 26.4 56 -10.6 13
08:35 1013 29.91 842 24.86 -3 26.6 55 -10.8 12.6
08:40 1013 29.91 842 24.86 -2.5 27.4 54 -10.5 13
08:45 1013 29.91 842 24.86 -2 28.5 53 -10.4 13.4
08:50 1013 29.91 842 24.86 -1.5 29.3 51 -10.4 13.4
08:55 1013 29.91 842 24.86 -0.9 30.4 48 -10.5 13.2
09:00 1013 29.91 842 24.86 -0.3 31.5 47 -10.2 13.7
09:05 1013 29.91 842 24.86 -0.2 31.6 47 -10.2 13.6
09:10 1013 29.91 842 24.86 -0 31.9 47 -10.2 13.7
09:15 1013 29.91 842 24.86 0.3 32.5 46 -9.9 14.1
09:20 1013 29.91 842 24.86 0 32 47 -10 14.1
09:25 1013 29.91 842 24.86 -0 32 47 -9.9 14.1
09:30 1013 29.91 842 24.86 0.5 33 45 -10 14
09:35 1013 29.91 842 24.86 1 33.8 43 -10.2 13.6
09:40 1013 29.91 842 24.86 1.5 34.6 42 -10 13.9
09:45 1013 29.91 842 24.86 1.9 35.5 41 -10 14
09:50 1013 29.91 842 24.86 1.8 35.3 42 -9.9 14.2
09:55 1013 29.91 842 24.86 2 35.6 43 -9.3 15.3
10:00 1013 29.91 842 24.86 1.7 35.1 41 -10.4 13.4
10:05 1013 29.91 842 24.86 2.2 35.9 41 -9.8 14.4
10:10 1013 29.91 842 24.86 1.5 34.7 44 -9.3 15.2
10:15 1013 29.91 842 24.86 1.7 35 43 -9.5 14.9
10:20 1013 29.91 842 24.86 1.8 35.3 41 -10 14.1
10:25 1013 29.91 842 24.86 2.2 36 42 -9.3 15.2
10:30 1013 29.91 842 24.86 2 35.6 43 -9.2 15.4
10:35 1013 29.91 842 24.86 2.2 35.9 45 -8.7 16.4
10:40 1013 29.91 842 24.86 2.6 36.6 42 -9.2 15.5
10:45 1013 29.91 842 24.86 2.8 37 42 -8.8 16.2
10:50 1013 29.91 842 24.86 2.9 37.3 41 -8.9 15.9
10:55 1013 29.91 842 24.86 3.5 38.2 41 -8.7 16.3
11:00 1013 29.91 842 24.86 3.6 38.5 40 -8.7 16.3
11:05 1013 29.91 842 24.86 4.1 39.4 37 -9.3 15.2
11:10 1013 29.91 842 24.86 4.2 39.5 38 -9 15.8
11:15 1013 29.91 842 24.86 4.2 39.5 40 -8.4 16.9
11:20 1013 29.91 842 24.86 3.1 37.6 42 -8.6 16.6
11:25 1013 29.91 842 24.86 3.6 38.5 40 -8.7 16.3
11:30 1013 29.91 842 24.86 4.3 39.7 39 -8.6 16.5
11:35 1013 29.91 842 24.86 4.3 39.8 40 -8.2 17.2
11:40 1013 29.91 842 24.86 4.1 39.3 42 -7.8 17.9
11:45 1013 29.91 842 24.86 4.5 40.2 39 -8.2 17.2
11:50 1013 29.91 842 24.86 4.9 40.9 40 -7.6 18.3
11:55 1013 29.91 842 24.86 4.5 40.2 41 -7.6 18.2
12:00 1013 29.91 842 24.86 4.2 39.5 41 -7.8 17.9
12:05 1013 29.91 842 24.86 4.3 39.7 42 -7.5 18.5
12:10 1013 29.91 842 24.86 4.6 40.2 42 -7.2 19
12:15 1013 29.91 842 24.86 4.2 39.6 44 -7 19.3
12:20 1013 29.91 842 24.86 4.8 40.6 40 -7.9 17.8
12:25 1012 29.88 842 24.86 5 41 41 -7.3 18.8
12:30 1012 29.88 842 24.86 5.1 41.1 41 -7 19.4
12:35 1012 29.88 842 24.86 4.9 40.9 40 -7.4 18.7
12:40 1012 29.88 841 24.83 4.7 40.4 41 -7.6 18.3
12:45 1012 29.88 841 24.83 5 41.1 39 -7.8 18
12:50 1012 29.88 841 24.83 5 40.9 38 -8.3 17
12:55 1012 29.88 841 24.83 4.8 40.7 39 -8.1 17.4
13:00 1012 29.88 841 24.83 4.6 40.3 39 -8.2 17.3
13:05 1012 29.88 841 24.83 4.2 39.6 39 -8.6 16.5
13:10 1012 29.88 841 24.83 4.1 39.3 41 -8.1 17.3
13:15 1012 29.88 841 24.83 4.1 39.4 40 -8.4 16.9
13:20 1012 29.88 841 24.83 4.2 39.6 38 -8.8 16.2
13:25 1012 29.88 841 24.83 4.7 40.4 36 -9.1 15.7
13:30 1012 29.88 841 24.83 5.2 41.4 35 -9.1 15.7
13:35 1012 29.88 841 24.83 5.4 41.7 35 -9.1 15.7
13:40 1012 29.88 841 24.83 5.3 41.5 36 -8.5 16.7
13:45 1011 29.85 841 24.83 5.7 42.3 36 -8.4 17
13:50 1011 29.85 841 24.83 5.7 42.2 35 -8.8 16.2
13:55 1011 29.85 841 24.83 5.8 42.4 35 -8.6 16.5
14:00 1011 29.85 840 24.81 5.4 41.8 38 -7.7 18.1
14:05 1011 29.85 840 24.81 5.4 41.8 36 -8.6 16.6
14:10 1011 29.85 840 24.81 6.1 43 35 -8.3 17
14:15 1011 29.85 840 24.81 6.8 44.2 34 -7.8 17.9
14:20 1011 29.85 840 24.81 7 44.7 33 -8.2 17.2
14:25 1011 29.85 840 24.81 6.8 44.3 34 -7.9 17.9
14:30 1011 29.85 840 24.81 6.9 44.3 36 -7.4 18.7
14:35 1011 29.85 840 24.81 6.4 43.6 38 -7 19.4
14:40 1011 29.85 840 24.81 6.3 43.3 38 -7 19.4
14:45 1011 29.85 840 24.81 5.8 42.4 40 -6.7 19.9
14:50 1011 29.85 840 24.81 6.6 44 35 -7.7 18.1
14:55 1011 29.85 840 24.81 7 44.6 37 -6.9 19.7
15:00 1011 29.85 840 24.81 7.6 45.7 34 -7.1 19.2
15:05 1011 29.85 840 24.81 7.6 45.7 35 -7 19.4
15:10 1011 29.85 840 24.81 7.8 46.1 34 -6.9 19.5
15:15 1011 29.85 840 24.81 7.7 45.9 35 -6.9 19.6
15:20 1011 29.85 840 24.81 8.1 46.6 34 -6.7 19.9
15:25 1011 29.85 840 24.81 8.1 46.6 34 -6.7 19.9
15:30 1011 29.85 840 24.81 8.1 46.6 34 -6.8 19.8
15:35 1011 29.85 840 24.81 8.2 46.7 34 -6.7 19.9
15:40 1011 29.85 840 24.81 7.9 46.2 34 -6.9 19.6
15:45 1011 29.85 840 24.81 7.9 46.1 33 -7.2 19
15:50 1011 29.85 840 24.81 6.6 43.8 35 -7.7 18.1
15:55 1011 29.85 840 24.81 6.3 43.3 35 -8.1 17.4
16:00 1011 29.85 840 24.81 5.7 42.2 35 -8.5 16.7
16:05 1011 29.85 840 24.81 6 42.8 34 -8.6 16.6
16:10 1011 29.85 840 24.81 5.8 42.4 34 -8.8 16.2
16:15 1011 29.85 840 24.81 6.2 43.1 33 -9 15.9
16:20 1011 29.85 840 24.81 6.6 44 32 -8.9 16
16:25 1010 29.83 840 24.81 6.7 44 33 -8.4 16.9
16:30 1010 29.83 840 24.81 6.8 44.2 32 -8.7 16.4
16:35 1010 29.83 840 24.81 6.8 44.2 34 -7.8 17.9
16:40 1010 29.83 840 24.81 7.1 44.8 32 -8.6 16.5
16:45 1010 29.83 840 24.81 7.1 44.8 38 -6.4 20.5
16:50 1010 29.83 840 24.81 6.9 44.4 39 -6 21.3
16:55 1010 29.83 840 24.81 6.8 44.2 36 -7.3 18.9
17:00 1010 29.83 840 24.81 7.1 44.8 36 -6.9 19.6
17:05 1010 29.83 840 24.81 6.8 44.3 40 -5.7 21.7
17:10 1010 29.83 840 24.81 6.3 43.4 41 -6.1 21
17:15 1010 29.83 840 24.81 6.4 43.6 39 -6.6 20.2
17:20 1010 29.83 840 24.81 6.6 43.9 39 -6.2 20.8
17:25 1010 29.83 840 24.81 6.4 43.6 38 -6.8 19.7
17:30 1010 29.83 840 24.81 6.3 43.4 39 -6.6 20.1
17:35 1010 29.83 840 24.81 5.7 42.3 40 -6.7 19.9
17:40 1010 29.83 840 24.81 5.2 41.4 41 -7.1 19.2
17:45 1010 29.83 840 24.81 4.8 40.7 40 -7.8 17.9
17:50 1010 29.83 840 24.81 4.7 40.5 41 -7.5 18.4
17:55 1010 29.83 839 24.78 4.1 39.4 43 -7.3 18.9
18:00 1010 29.83 839 24.78 3.6 38.4 44 -7.6 18.4
18:05 1010 29.83 839 24.78 3.3 38 45 -7.6 18.4
18:10 1010 29.83 839 24.78 3.1 37.6 46 -7.5 18.5
18:15 1010 29.83 839 24.78 2.9 37.3 46 -7.7 18.2
18:20 1010 29.83 839 24.78 2.7 36.9 47 -7.5 18.5
18:25 1010 29.83 839 24.78 2.3 36.1 49 -7.4 18.7
18:30 1010 29.83 839 24.78 1.8 35.3 49 -7.8 17.9
18:35 1010 29.83 839 24.78 1.4 34.6 49 -8.2 17.2
18:40 1010 29.83 839 24.78 1.2 34.1 52 -7.7 18.1
18:45 1010 29.83 839 24.78 0.8 33.5 53 -7.7 18.1
18:50 1010 29.83 839 24.78 0.9 33.7 48 -8.8 16.2
18:55 1010 29.83 839 24.78 1.3 34.4 49 -8.2 17.2
19:00 1010 29.83 839 24.78 1.1 34 50 -8.2 17.2
19:05 1010 29.83 839 24.78 0.9 33.6 49 -8.6 16.5
19:10 1010 29.83 839 24.78 0.7 33.2 50 -8.7 16.4
19:15 1010 29.83 839 24.78 0.5 32.9 50 -8.7 16.3
19:20 1010 29.83 839 24.78 0.6 33.1 49 -8.8 16.2
19:25 1010 29.83 839 24.78 0.5 33 50 -8.8 16.1
19:30 1010 29.83 839 24.78 0.4 32.7 49 -9.2 15.5
19:35 1010 29.83 839 24.78 0.4 32.8 48 -9.3 15.2
19:40 1010 29.83 839 24.78 0.5 33 47 -9.4 15
19:45 1010 29.83 839 24.78 0.6 33.1 48 -9.3 15.3
19:50 1010 29.83 839 24.78 0.4 32.8 49 -9.1 15.6
19:55 1010 29.83 839 24.78 0.1 32.2 50 -9.1 15.7
20:00 1010 29.83 839 24.78 -0.1 31.7 51 -9 15.7
20:05 1010 29.83 839 24.78 -0.4 31.2 51 -9.2 15.4
20:10 1010 29.83 839 24.78 -0.3 31.4 50 -9.5 15
20:15 1010 29.83 839 24.78 -0 32 49 -9.4 15.1
20:20 1010 29.83 839 24.78 0 32 49 -9.5 14.9
20:25 1010 29.83 839 24.78 0.1 32.2 48 -9.6 14.7
20:30 1010 29.83 839 24.78 0.3 32.5 48 -9.5 14.8
20:35 1010 29.83 839 24.78 0.3 32.6 48 -9.6 14.8
20:40 1010 29.83 839 24.78 0.3 32.5 47 -9.8 14.3
20:45 1010 29.83 839 24.78 0.4 32.8 46 -9.8 14.3
20:50 1010 29.83 839 24.78 0.4 32.8 47 -9.7 14.6
20:55 1010 29.83 840 24.81 0.2 32.4 46 -10.1 13.8
21:00 1010 29.83 840 24.81 0.4 32.7 46 -9.9 14.3
21:05 1010 29.83 840 24.81 0.3 32.5 47 -9.7 14.6
21:10 1010 29.83 840 24.81 0.1 32.1 49 -9.3 15.2
21:15 1010 29.83 840 24.81 -0.1 31.9 49 -9.5 15
21:20 1010 29.83 840 24.81 -0.1 31.7 50 -9.4 15.1
21:25 1010 29.83 840 24.81 -0.3 31.5 50 -9.4 15.1
21:30 1010 29.83 840 24.81 -0.3 31.4 51 -9.4 15.1
21:35 1010 29.83 840 24.81 -0.4 31.3 51 -9.4 15
21:40 1010 29.83 840 24.81 -0.4 31.3 50 -9.6 14.7
21:45 1010 29.83 840 24.81 -0.7 30.7 51 -9.6 14.7
21:50 1010 29.83 840 24.81 -1 30.2 51 -9.9 14.2
21:55 1010 29.83 840 24.81 -0.9 30.4 50 -10 14
22:00 1010 29.83 840 24.81 -0.7 30.8 48 -10.3 13.5
22:05 1010 29.83 840 24.81 -0.4 31.3 48 -10.2 13.7
22:10 1010 29.83 840 24.81 -0.3 31.5 48 -10.1 13.8
22:15 1010 29.83 840 24.81 -0.4 31.4 49 -9.9 14.2
22:20 1010 29.83 840 24.81 -0.4 31.3 49 -9.8 14.3
22:25 1010 29.83 840 24.81 -0.5 31 49 -9.9 14.2
22:30 1010 29.83 840 24.81 -0.9 30.4 52 -9.6 14.7
22:35 1010 29.83 840 24.81 -1.5 29.4 54 -9.6 14.6
22:40 1010 29.83 840 24.81 -1.7 29 54 -9.8 14.4
22:45 1010 29.83 840 24.81 -1.5 29.2 53 -9.8 14.3
22:50 1010 29.83 840 24.81 -1.2 29.9 53 -9.7 14.6
22:55 1010 29.83 840 24.81 -0.9 30.3 52 -9.6 14.7
23:00 1010 29.83 840 24.81 -1.1 30.1 53 -9.5 14.9
23:05 1010 29.83 840 24.81 -1.3 29.6 55 -9.3 15.2
23:10 1010 29.83 840 24.81 -1.4 29.5 55 -9.3 15.3
23:15 1010 29.83 840 24.81 -1.2 29.8 54 -9.3 15.2
23:20 1010 29.83 839 24.78 -1.5 29.4 54 -9.5 14.8
23:25 1010 29.83 839 24.78 -1.2 29.9 51 -9.9 14.1
23:30 1010 29.83 839 24.78 -1.3 29.6 53 -9.8 14.4
23:35 1010 29.83 839 24.78 -1.4 29.6 53 -9.7 14.5
23:40 1010 29.83 839 24.78 -1.1 30 53 -9.6 14.7
23:45 1010 29.83 839 24.78 -1.2 29.8 54 -9.4 15.1
23:50 1010 29.83 839 24.78 -1.4 29.5 55 -9.4 15.2
23:55 1010 29.83 839 24.78 -1.5 29.3 55 -9.3 15.3
24:00 1010 29.83 839 24.78 -1.5 29.3 55 -9.4 15